Latest Weather Observations for Lajamanu

IDD60801

Issued at 7:35 pm CST Thursday 27 November 2014 (issued every 30 minutes, with the page automatically refreshed every 10 minutes)

About weather observations | Map of weather stations | Latest weather observations for NT | Other Formats
Station Details ID: 014829 Name: LAJAMANU AIRPORT Lat: -18.33 Lon: 130.64 Height: 315.6 m
Data from the previous 72 hours. | See also: Recent months at Lajamanu
Date/Time
CST
Temp
°C
App
Temp
°C
Dew
Point
Rel
Hum
%
Delta-T
°C
Wind Press
QNH
hPa
Press
MSL
hPa
Rain
since 9 am
mm
Dir
 
Spd
km/h
Gust
km/h
Spd
kts
Gust
kts
27/07:30pm 32.6 31.3 14.7 34 11.2 E 15 19 8 10 1008.7 1006.3 0.0
27/07:00pm 33.2 32.4 15.2 33 11.3 SE 13 20 7 11 1008.3 1005.9 0.0
27/06:30pm 33.2 31.4 16.1 35 10.9 SE 20 30 11 16 1008.1 1005.7 0.0
27/06:00pm 33.2 30.3 16.1 35 10.9 SSE 26 35 14 19 1007.7 1005.2 0.0
27/05:30pm 36.2 34.1 13.6 25 14.0 ENE 17 24 9 13 1007.2 1004.7 0.0
27/05:00pm 36.8 35.6 14.1 25 14.2 ESE 13 20 7 11 1007.0 1004.5 0.0
27/04:30pm 36.5 34.3 13.3 25 14.4 ENE 17 28 9 15 1007.0 1004.5 0.0
27/04:00pm 37.4 35.8 14.0 24 14.7 ENE 15 22 8 12 1007.3 1004.8 0.0
27/03:30pm 36.5 34.5 15.0 27 13.6 ESE 19 26 10 14 1007.5 1005.0 0.0
27/03:00pm 38.1 37.1 14.6 24 14.9 E 13 28 7 15 1007.9 1005.5 0.0
27/02:30pm 38.5 37.7 15.0 25 15.0 E 13 24 7 13 1008.4 1006.0 0.0
27/02:00pm 37.5 35.8 14.7 25 14.4 ENE 17 28 9 15 1009.1 1006.7 0.0
27/01:30pm 36.6 36.6 15.1 27 13.7 NE 9 17 5 9 1009.7 1007.2 0.0
27/01:00pm 36.3 34.5 15.9 29 13.1 NNE 20 39 11 21 1010.2 1007.7 0.0
27/12:30pm 36.0 34.8 16.2 31 12.7 ENE 17 26 9 14 1010.7 1008.2 0.0
27/12:00pm 36.0 34.5 16.2 31 12.7 E 19 26 10 14 1011.2 1008.8 0.0
27/11:30am 35.0 33.3 15.8 31 12.2 NE 19 28 10 15 1011.5 1009.1 0.0
27/11:00am 34.6 33.9 17.3 35 11.2 NE 17 26 9 14 1012.0 1009.6 0.0
27/10:30am 33.8 33.9 17.5 38 10.6 ENE 13 22 7 12 1012.2 1009.8 0.0
27/10:00am 33.2 33.5 17.8 40 10.0 E 13 19 7 10 1012.4 1010.0 0.0
27/09:30am 32.4 32.8 18.2 42 9.3 E 13 20 7 11 1012.4 1010.0 0.0
27/09:00am 31.0 31.0 18.0 45 8.4 ESE 15 22 8 12 1012.4 1010.0 0.0
27/08:30am 30.8 30.3 17.8 45 8.4 SE 17 24 9 13 1012.1 1009.7 0.0
27/08:00am 29.7 29.9 18.5 51 7.3 ESE 15 19 8 10 1011.7 1009.3 0.0
27/07:30am 28.0 28.1 18.4 56 6.2 SE 15 19 8 10 1011.7 1009.3 0.0
27/07:00am 26.6 27.4 19.0 63 4.9 SE 13 19 7 10 1011.3 1008.9 0.0
27/06:30am 25.8 26.2 19.0 66 4.4 SSE 15 20 8 11 1011.1 1008.7 0.0
27/06:00am 26.0 27.1 19.6 68 4.2 SSE 13 19 7 10 1011.0 1008.6 0.0
27/05:30am 26.4 27.4 19.5 66 4.5 SSE 13 19 7 10 1010.6 1008.1 0.0
27/05:00am 25.7 27.2 18.9 66 4.4 S 9 13 5 7 1010.3 1007.8 0.0
27/04:30am 26.2 28.2 19.1 65 4.6 SE 7 9 4 5 1009.9 1007.4 0.0
27/04:00am 25.9 29.1 18.8 65 4.6 CALM 0 0 0 0 1009.7 1007.2 0.0
27/03:30am 26.0 28.8 18.9 65 4.6 ESE 2 6 1 3 1009.7 1007.2 0.0
27/03:00am 25.7 27.4 18.4 64 4.7 ESE 7 9 4 5 1009.7 1007.2 0.0
27/02:30am 26.3 28.1 18.4 61 5.1 ESE 6 9 3 5 1009.7 1007.2 0.0
27/02:00am 26.9 28.2 18.5 60 5.4 ESE 9 13 5 7 1009.8 1007.3 0.0
27/01:30am 26.9 27.9 18.7 60 5.3 ESE 11 13 6 7 1010.0 1007.5 0.0
27/01:00am 27.4 28.8 18.7 59 5.6 ESE 9 13 5 7 1010.3 1007.8 0.0
27/12:30am 28.1 29.7 19.1 58 5.9 SSE 9 11 5 6 1010.3 1007.8 0.0
27/12:00am 28.4 30.5 19.3 57 6.0 S 7 9 4 5 1010.5 1008.0 0.0
 
Date/Time
CST
Temp
°C
App
Temp
°C
Dew
Point
Rel
Hum
%
Delta-T
°C
Wind Press
QNH
hPa
Press
MSL
hPa
Rain
since 9 am
mm
Dir
 
Spd
km/h
Gust
km/h
Spd
kts
Gust
kts
26/11:30pm 28.1 30.1 19.1 58 5.9 S 7 9 4 5 1010.8 1008.4 0.0
26/11:00pm 27.7 30.7 18.4 57 6.0 CALM 0 0 0 0 1010.7 1008.2 0.0
26/10:30pm 28.5 31.6 18.6 55 6.4 CALM 0 0 0 0 1010.6 1008.1 0.0
26/10:00pm 28.9 32.1 18.9 54 6.5 CALM 0 0 0 0 1010.5 1008.0 0.0
26/09:30pm 28.9 31.3 18.9 54 6.5 WNW 4 7 2 4 1010.3 1007.8 0.0
26/09:00pm 28.9 31.0 18.9 54 6.5 WNW 6 7 3 4 1010.1 1007.6 0.0
26/08:30pm 29.3 31.2 19.0 53 6.8 NNW 7 9 4 5 1009.8 1007.3 0.0
26/08:00pm 30.0 31.8 18.8 51 7.3 N 7 7 4 4 1009.6 1007.1 0.0
26/07:30pm 30.6 32.0 18.7 49 7.8 N 9 13 5 7 1009.2 1006.8 0.0
26/07:00pm 30.9 32.1 18.3 47 8.2 NNE 9 13 5 7 1008.7 1006.3 0.0
26/06:30pm 31.4 31.7 18.0 44 8.7 NE 13 17 7 9 1008.6 1006.2 0.0
26/06:00pm 32.2 32.2 18.0 42 9.3 NE 15 20 8 11 1008.4 1006.0 0.0
26/05:30pm 31.8 31.7 16.9 40 9.6 NE 13 20 7 11 1008.4 1006.0 0.0
26/05:00pm 32.5 32.1 17.2 40 9.9 NE 15 22 8 12 1008.1 1005.7 0.0
26/04:30pm 33.6 32.8 16.0 34 11.2 NE 15 30 8 16 1008.0 1005.6 0.0
26/04:00pm 32.9 31.6 15.8 35 10.8 NE 17 26 9 14 1008.4 1006.0 0.0
26/03:30pm 32.2 31.3 16.9 40 9.8 NE 17 28 9 15 1008.8 1006.4 0.0
26/03:00pm 32.4 31.1 16.7 39 10.1 NE 19 26 10 14 1009.2 1006.8 0.0
26/02:30pm 31.9 31.8 17.8 43 9.2 ENE 15 20 8 11 1009.3 1006.9 0.0
26/02:00pm 31.4 31.0 18.0 44 8.7 ENE 17 24 9 13 1009.8 1007.3 0.0
26/01:30pm 31.7 31.0 18.3 45 8.8 ENE 19 26 10 14 1010.0 1007.5 0.0
26/01:00pm 32.0 31.6 19.3 47 8.4 E 20 26 11 14 1010.3 1007.8 0.0
26/12:30pm 30.9 30.2 18.6 48 8.1 E 20 30 11 16 1010.7 1008.2 0.0
26/12:00pm 30.6 30.3 19.6 51 7.3 ENE 20 26 11 14 1011.1 1008.7 0.0
26/11:30am 30.0 30.0 19.7 54 6.8 E 19 26 10 14 1011.6 1009.2 0.0
26/11:00am 29.3 30.0 19.6 56 6.4 E 15 20 8 11 1011.9 1009.5 0.0
26/10:30am 30.0 30.5 20.0 55 6.7 ENE 17 26 9 14 1012.4 1010.0 0.0
26/10:00am 28.2 28.4 20.5 63 5.1 E 20 30 11 16 1012.5 1010.1 0.0
26/09:30am 26.7 27.0 20.3 68 4.2 ESE 19 24 10 13 1012.4 1010.0 0.0
26/09:00am 25.8 26.0 20.1 71 3.8 E 19 26 10 14 1012.8 1010.3 0.6
26/08:30am 25.5 25.7 20.1 72 3.6 ESE 19 26 10 14 1012.6 1010.2 0.6
26/08:00am 25.3 25.7 19.9 72 3.5 ESE 17 26 9 14 1012.8 1010.3 0.6
26/07:30am 24.9 25.9 20.2 75 3.1 ESE 15 19 8 10 1012.5 1010.1 0.6
26/07:00am 23.9 25.1 20.0 79 2.6 SE 13 20 7 11 1012.2 1009.8 0.6
26/06:30am 23.3 24.6 20.1 82 2.1 ESE 13 17 7 9 1011.5 1009.1 0.6
26/06:00am 22.9 23.9 20.2 85 1.8 SE 15 19 8 10 1011.4 1009.0 0.6
26/05:30am 22.6 23.9 20.1 86 1.6 SE 13 17 7 9 1011.0 1008.6 0.6
26/05:00am 22.5 24.6 20.2 87 1.5 SE 9 13 5 7 1010.3 1007.8 0.6
26/04:30am 22.5 24.6 20.2 87 1.5 SSE 9 11 5 6 1010.0 1007.5 0.6
26/04:00am 22.6 24.7 20.1 86 1.6 SE 9 13 5 7 1009.7 1007.2 0.6
26/03:30am 22.6 24.3 20.1 86 1.6 SE 11 13 6 7 1009.8 1007.3 0.6
26/03:00am 22.4 24.9 19.8 85 1.7 E 6 7 3 4 1009.5 1007.0 0.6
26/02:30am 22.6 24.6 19.9 85 1.8 E 9 13 5 7 1010.1 1007.6 0.6
26/02:00am 22.9 23.8 20.1 84 1.8 NNE 15 20 8 11 1009.9 1007.4 0.6
26/01:30am 23.1 24.8 20.1 83 2.0 NNE 11 17 6 9 1010.4 1007.9 0.6
26/01:00am 23.3 23.8 20.1 82 2.1 NNE 17 24 9 13 1010.9 1008.5 0.6
26/12:30am 23.4 24.3 20.0 81 2.2 ENE 15 20 8 11 1011.6 1009.2 0.6
26/12:00am 23.7 22.6 19.4 77 2.8 ENE 24 33 13 18 1012.1 1009.7 0.6
 
Date/Time
CST
Temp
°C
App
Temp
°C
Dew
Point
Rel
Hum
%
Delta-T
°C
Wind Press
QNH
hPa
Press
MSL
hPa
Rain
since 9 am
mm
Dir
 
Spd
km/h
Gust
km/h
Spd
kts
Gust
kts
25/11:30pm 24.3 22.4 19.4 74 3.2 ENE 28 37 15 20 1012.4 1010.0 0.6
25/11:00pm 24.2 23.5 20.3 79 2.6 NE 24 37 13 20 1013.0 1010.5 0.6
25/10:36pm 24.7 22.4 20.6 78 2.7 ENE 33 59 18 32 1013.1 1010.6 0.6
25/10:30pm 25.0 23.6 21.1 79 2.6 ENE 30 44 16 24 1013.1 1010.6 0.6
25/10:00pm 25.2 24.2 21.3 79 2.6 ENE 28 39 15 21 1012.2 1009.8 0.6
25/09:30pm 27.2 25.7 19.5 62 5.1 E 26 43 14 23 1011.6 1009.2 0.6
25/09:00pm 27.4 27.6 20.2 65 4.8 E 19 26 10 14 1010.3 1007.8 0.4
25/08:30pm 26.7 27.9 21.5 73 3.5 E 17 22 9 12 1009.6 1007.1 0.4
25/08:00pm 26.2 29.5 21.8 77 3.0 ESE 7 9 4 5 1009.2 1006.8 0.4
25/07:30pm 25.9 27.2 20.9 74 3.3 NE 15 20 8 11 1009.3 1006.9 0.0
25/07:00pm 27.9 27.6 19.1 58 5.7 E 19 20 10 11 1009.2 1006.8 0.0
25/06:30pm 28.6 24.4 19.0 56 6.3 ESE 39 50 21 27 1009.0 1006.6 0.0
25/06:23pm 29.1 24.9 18.8 53 6.7 ESE 39 48 21 26 1009.0 1006.6 0.0
25/06:00pm 31.5 25.3 15.9 39 9.9 SSE 43 63 23 34 1007.6 1005.1 0.0
25/05:52pm 33.0 26.4 13.6 31 11.9 SE 41 63 22 34 1007.0 1004.5 0.0
25/05:47pm 35.2 28.9 13.4 27 13.4 SSE 39 50 21 27 1006.8 1004.3 0.0
25/05:30pm 38.7 36.9 14.5 24 15.4 SE 17 20 9 11 1005.8 1003.4 0.0
25/05:00pm 38.5 37.4 14.3 23 15.3 SE 13 20 7 11 1005.9 1003.5 0.0
25/04:30pm 38.2 38.2 14.1 24 15.2 E 7 11 4 6 1005.8 1003.4 0.0
25/04:00pm 38.2 37.8 15.3 25 14.6 ENE 11 17 6 9 1006.2 1003.7 0.0
25/03:30pm 37.7 36.3 15.5 27 14.2 E 17 24 9 13 1006.8 1004.3 0.0
25/03:00pm 37.9 37.3 15.7 27 14.3 ENE 13 24 7 13 1007.2 1004.7 0.0
25/02:30pm 36.8 37.2 16.4 30 13.2 ENE 9 20 5 11 1007.6 1005.1 0.0
25/02:00pm 36.4 36.5 16.5 30 12.9 SE 11 20 6 11 1008.4 1006.0 0.0
25/01:30pm 34.7 34.4 17.4 35 11.3 ESE 15 20 8 11 1009.2 1006.8 0.0
25/01:00pm 34.0 33.3 16.4 35 11.3 ESE 15 20 8 11 1009.9 1007.4 0.0
25/12:30pm 34.4 34.6 15.8 33 11.8 E 9 17 5 9 1010.2 1007.7 0.0
25/12:00pm 34.0 34.1 15.4 32 11.8 E 9 15 5 8 1010.6 1008.1 0.0
25/11:30am 34.0 34.1 15.4 32 11.8 SSE 9 15 5 8 1010.9 1008.5 0.0
25/11:00am 33.9 33.6 15.4 33 11.7 SE 11 19 6 10 1011.3 1008.9 0.0
25/10:30am 32.9 30.7 15.0 34 11.2 SE 20 26 11 14 1011.5 1009.1 0.0
25/10:00am 33.5 32.8 15.5 34 11.4 S 13 20 7 11 1011.4 1009.0 0.0
25/09:30am 31.9 31.7 16.6 39 9.8 S 13 20 7 11 1011.5 1009.1 0.0
25/09:00am 30.7 30.9 16.7 43 8.9 S 11 19 6 10 1011.3 1008.9 0.0
25/08:30am 30.1 29.1 16.5 44 8.6 S 17 20 9 11 1011.4 1009.0 0.0
25/08:00am 29.4 29.3 16.9 47 7.9 S 13 20 7 11 1011.4 1009.0 0.0
25/07:30am 28.0 28.8 17.2 52 6.9 SSE 9 11 5 6 1011.2 1008.8 0.0
25/07:00am 27.0 27.9 17.5 56 6.0 S 9 13 5 7 1011.1 1008.7 0.0
25/06:30am 26.6 28.0 17.7 58 5.7 SSW 7 11 4 6 1010.8 1008.4 0.0
25/06:00am 26.4 27.9 17.7 58 5.5 E 6 13 3 7 1010.5 1008.0 0.0
25/05:30am 26.4 27.4 16.9 56 6.0 E 7 11 4 6 1010.2 1007.7 0.0
25/05:00am 26.6 26.4 16.8 55 6.2 ENE 13 17 7 9 1010.2 1007.7 0.0
25/04:30am 26.6 26.7 17.4 57 5.8 E 13 24 7 13 1010.2 1007.7 0.0
25/04:00am 27.7 26.3 16.9 51 6.8 ENE 20 28 11 15 1010.1 1007.6 0.0
25/03:30am 28.1 28.2 16.4 49 7.4 NE 11 17 6 9 1009.6 1007.1 0.0
25/03:00am 28.8 27.5 15.7 45 8.2 E 17 24 9 13 1009.2 1006.8 0.0
25/02:39am 29.7 26.0 15.0 40 9.1 E 28 32 15 17 1009.1 1006.7 0.0
25/02:30am 29.7 29.7 14.3 39 9.4 ENE 7 11 4 6 1009.0 1006.6 0.0
25/02:00am 30.1 30.7 14.2 38 9.7 SSW 4 7 2 4 1008.6 1006.2 0.0
25/01:30am 30.2 30.8 13.0 34 10.4 SSW 2 6 1 3 1008.9 1006.5 0.0
25/01:00am 30.7 29.9 13.0 33 10.7 S 9 11 5 6 1009.2 1006.8 0.0
25/12:30am 31.1 29.9 12.9 32 11.0 SSW 11 13 6 7 1009.6 1007.1 0.0
25/12:00am 31.3 30.4 12.6 31 11.2 SSW 9 13 5 7 1010.0 1007.5 0.0
 
Date/Time
CST
Temp
°C
App
Temp
°C
Dew
Point
Rel
Hum
%
Delta-T
°C
Wind Press
QNH
hPa
Press
MSL
hPa
Rain
since 9 am
mm
Dir
 
Spd
km/h
Gust
km/h
Spd
kts
Gust
kts
24/11:30pm 30.9 31.0 12.8 33 10.9 SSW 4 9 2 5 1010.1 1007.6 0.0
24/11:00pm 31.9 31.4 12.2 30 11.8 SSE 6 7 3 4 1010.2 1007.7 0.0
24/10:30pm 32.1 31.7 12.3 29 11.9 SSE 6 7 3 4 1010.1 1007.6 0.0
24/10:00pm 32.5 31.6 12.7 30 12.0 S 9 13 5 7 1009.9 1007.4 0.0
24/09:30pm 32.8 32.0 12.9 29 12.1 S 9 13 5 7 1009.8 1007.3 0.0
24/09:00pm 32.6 32.1 13.8 32 11.6 S 9 11 5 6 1009.5 1007.0 0.0
24/08:30pm 33.0 32.8 13.6 31 11.9 SSE 7 9 4 5 1009.0 1006.6 0.0
24/08:00pm 33.5 33.3 13.5 29 12.3 ESE 7 9 4 5 1008.5 1006.1 0.0

Other Formats:

Comma delimited format used in spreadsheet applications
http://www.bom.gov.au/fwo/IDD60801/IDD60801.94231.axf

JavaScript Object Notation format (JSON) in row-major order
http://www.bom.gov.au/fwo/IDD60801/IDD60801.94231.json